aviador You're here:

HEGN Decoded Metar

HURGHADA in EGYPT
Report Time2018-01-17 04:00:00
UTC Time2018-01-17 05:05:32
Flight Rules vfr VFR
Wind320° at 15 kt
W.Decomp.*RWY 34: 13.7 kt HW 6.1 kt LCW
W.Rank320° ranks 6
Current wind is above 320° avg. (10.9)
Visibility9999 m
Phenomena:N/A
Clouds:N/A
Expected CloudBase > 2,000 ft AGL from Temp-Dew spread
CeilingNone
Temp13°C (ISA -2)
Dew Point08°C (72% RH)
AAT7.2°C
QNH1017 hPa
Density Alt-171 ft
Elevation46 ft
Report Wrong Elevation
Raw Report
HEGN 170400Z 32015KT CAVOK 13/08 Q1017 NOSIG=

Extra information for HEGN:More info

Metar Taf Metar & Taf Last 4 Metars F.Rules Stats Wind Profile Meteogram Temp Stats Airport Information Weather charts Add Link Nearby VenuesMetar ALERT Operation Metar Decoded Social comments